»·PEaware :: N348ME KSNA-KOXR

N348ME :: KSNA-KOXR

FLIGHT INFORMATION

Flight Status: Arrived
Operator: Privately registered:
United States
More flights under this callsign
Pilot: Paul W. (11376)
Aircraft: CESSNA 172 SKYHAWK
(C172)
More flights by this aircraft type
Origin: KSNA John Wayne-Orange Co
United States
Destination: KOXR Oxnard
United States
More flights between these airports :: More routes between these airports
Route: SLI V23 POPPR SMO125 SMO VNY
File this flight plan on PilotEdge
Remarks: I-4
Altitude:
(Current/Filed)
4,000ft
Speed:
(Current/Filed)
115kts
Departed: 15-May-18 08:56 PM
Arrived: 15-May-18 09:47 PM
Distance/Time
Traveled:
74nm/0:51
Distance/Time
To Go:
Arrived

Flight Plot

Page will automatically refresh every two minutes.


Map Options




Map Legend


Flown Route
Filed Route
Departure Airport
Arrival Airport
Navaid (VOR, NDB)
Fix

Horizontal Profiles

Position Reports

Time Latitude Longitude Heading Altitude Ground
Speed
15-May-18 20:42 33.671877 -117.867016 205 60ft 0kts
15-May-18 20:43 33.671877 -117.867016 205 60ft 0kts
15-May-18 20:44 33.671877 -117.867016 205 60ft 0kts
15-May-18 20:45 33.671877 -117.867016 205 60ft 0kts
15-May-18 20:46 33.671877 -117.867016 205 60ft 0kts
15-May-18 20:47 33.671877 -117.867016 205 60ft 0kts
15-May-18 20:48 33.671877 -117.867016 205 60ft 0kts
15-May-18 20:49 33.671877 -117.867016 205 60ft 0kts
15-May-18 20:50 33.671877 -117.867016 205 60ft 0kts
15-May-18 20:51 33.671877 -117.867016 205 60ft 0kts
15-May-18 20:52 33.671877 -117.867016 205 60ft 0kts
15-May-18 20:53 33.673674 -117.867191 3 60ft 16kts
15-May-18 20:54 33.677226 -117.865090 26 60ft 13kts
15-May-18 20:55 33.679859 -117.863540 328 60ft 8kts
15-May-18 20:56 33.675844 -117.866915 211 140ft 64kts
15-May-18 20:57 33.662819 -117.881399 244 917ft 62kts
15-May-18 20:58 33.650677 -117.897695 228 1648ft 64kts
15-May-18 20:59 33.637470 -117.913946 229 2322ft 68kts
15-May-18 21:00 33.625110 -117.929634 231 2974ft 68kts
15-May-18 21:01 33.613022 -117.946129 230 3620ft 65kts
15-May-18 21:02 33.603653 -117.964284 295 4143ft 75kts
15-May-18 21:03 33.619599 -117.991003 302 4130ft 113kts
15-May-18 21:04 33.637823 -118.022294 300 3971ft 107kts
15-May-18 21:05 33.654131 -118.052212 300 4046ft 113kts
15-May-18 21:06 33.672629 -118.083465 301 4009ft 115kts
15-May-18 21:07 33.690874 -118.114363 304 3970ft 112kts
15-May-18 21:08 33.708791 -118.144958 301 4004ft 112kts
15-May-18 21:09 33.725233 -118.177043 304 3986ft 114kts
15-May-18 21:10 33.752268 -118.197148 331 4054ft 120kts
15-May-18 21:11 33.778972 -118.218761 311 4052ft 116kts
15-May-18 21:12 33.800389 -118.247747 309 3996ft 115kts
15-May-18 21:13 33.827853 -118.268696 319 3997ft 116kts
15-May-18 21:14 33.852804 -118.293175 315 3996ft 115kts
15-May-18 21:15 33.877094 -118.318136 315 3995ft 115kts
15-May-18 21:16 33.901323 -118.343513 315 3994ft 115kts
15-May-18 21:17 33.925451 -118.369098 315 3993ft 116kts
15-May-18 21:18 33.949952 -118.394746 315 3992ft 118kts
15-May-18 21:19 33.975184 -118.420744 314 3992ft 120kts
15-May-18 21:20 34.000945 -118.447165 314 3983ft 122kts
15-May-18 21:21 34.033828 -118.458883 348 3982ft 129kts
15-May-18 21:22 34.069462 -118.465140 349 3982ft 130kts
15-May-18 21:23 34.104612 -118.471256 348 3979ft 130kts
15-May-18 21:24 34.140247 -118.477377 348 3976ft 129kts
15-May-18 21:25 34.175766 -118.483357 348 3973ft 129kts
15-May-18 21:26 34.211029 -118.489551 336 3968ft 126kts
15-May-18 21:27 34.218698 -118.524933 269 3969ft 114kts
15-May-18 21:28 34.218822 -118.563386 264 3968ft 113kts
15-May-18 21:29 34.215755 -118.601176 264 3971ft 113kts
15-May-18 21:30 34.212918 -118.638870 263 3976ft 112kts
15-May-18 21:31 34.210053 -118.675234 263 3982ft 111kts
15-May-18 21:32 34.206962 -118.712453 263 3986ft 111kts
15-May-18 21:33 34.203703 -118.749497 263 3990ft 110kts
15-May-18 21:34 34.200265 -118.786210 263 3994ft 109kts
15-May-18 21:35 34.196648 -118.822643 262 4000ft 110kts
15-May-18 21:36 34.192898 -118.860079 262 4006ft 112kts
15-May-18 21:37 34.189114 -118.897621 262 4006ft 112kts
15-May-18 21:38 34.188229 -118.935207 271 4006ft 112kts
15-May-18 21:39 34.190750 -118.973002 273 4006ft 112kts
15-May-18 21:40 34.198614 -119.010301 297 3335ft 117kts
15-May-18 21:41 34.200782 -119.045833 263 2592ft 101kts
15-May-18 21:42 34.200059 -119.078058 270 2057ft 91kts
15-May-18 21:43 34.199936 -119.107037 271 1611ft 91kts
15-May-18 21:44 34.200359 -119.137168 272 1082ft 83kts
15-May-18 21:45 34.200802 -119.165720 269 623ft 85kts
15-May-18 21:46 34.200706 -119.189408 271 273ft 59kts
15-May-18 21:47 34.200831 -119.205684 263 39ft 20kts
15-May-18 21:48 34.199296 -119.206929 154 37ft 2kts
15-May-18 21:49 34.199273 -119.206914 148 37ft 0kts

Navigation Log

Ident Type
1. KSNA Airport
2. SLI Navaid
3. POPPR Fix
4. SMO Navaid
5. VNY Navaid
6. KOXR Airport